Time;durP1;ratioP1;P1;durP2;ratioP2;P2;SDS_P1;SDS_P2;PMS_P1;PMS_P2;Temp;Humidity;BMP_temperature;BMP_pressure;BME280_temperature;BME280_humidity;BME280_pressure;Samples;Min_cycle;Max_cycle;Signal;HPM_P1;HPM_P2
2024/04/01 00:00:49;;;;;;;0.30;0.20;;;;;;;13.06;100.00;98170.75;5007517;28;20317;-48
2024/04/01 00:03:14;;;;;;;0.30;0.20;;;;;;;13.09;100.00;98151.84;4987832;28;20219;-48
2024/04/01 00:05:40;;;;;;;0.30;0.20;;;;;;;13.01;100.00;98159.53;4981971;28;20245;-48
2024/04/01 00:08:06;;;;;;;0.30;0.20;;;;;;;12.82;100.00;98152.03;5007588;28;20218;-48
2024/04/01 00:10:31;;;;;;;0.30;0.20;;;;;;;12.57;100.00;98136.94;4997310;28;20309;-48
2024/04/01 00:12:59;;;;;;;0.30;0.20;;;;;;;12.47;100.00;98146.53;4985696;28;20686;-48
2024/04/01 00:15:27;;;;;;;0.30;0.20;;;;;;;12.65;100.00;98128.41;4981248;28;20250;-48
2024/04/01 00:17:53;;;;;;;0.30;0.20;;;;;;;12.76;100.00;98136.50;4988831;28;20553;-48
2024/04/01 00:20:19;;;;;;;0.30;0.20;;;;;;;12.61;100.00;98146.44;4994682;28;20824;-48
2024/04/01 00:22:44;;;;;;;0.30;0.20;;;;;;;12.31;100.00;98124.63;5011036;28;20465;-47
2024/04/01 00:25:10;;;;;;;0.30;0.20;;;;;;;12.28;100.00;98103.53;4994627;28;20761;-49
2024/04/01 00:27:35;;;;;;;0.30;0.20;;;;;;;12.27;100.00;98092.03;5010272;28;20707;-48
2024/04/01 00:30:04;;;;;;;0.30;0.20;;;;;;;12.47;100.00;98079.94;5010967;28;20296;-47
2024/04/01 00:32:33;;;;;;;0.30;0.20;;;;;;;12.50;100.00;98070.88;5010869;28;20234;-48
2024/04/01 00:34:59;;;;;;;0.30;0.20;;;;;;;12.66;100.00;98087.47;4994486;28;20736;-47
2024/04/01 00:37:24;;;;;;;0.30;0.20;;;;;;;12.67;100.00;98095.34;4994250;28;20512;-48
2024/04/01 00:39:50;;;;;;;0.30;0.20;;;;;;;12.76;100.00;98112.50;5010365;28;20259;-48
2024/04/01 00:42:16;;;;;;;0.30;0.20;;;;;;;12.69;100.00;98111.22;4981236;28;20593;-48
2024/04/01 00:44:41;;;;;;;0.30;0.20;;;;;;;12.72;100.00;98113.66;4983612;28;20238;-47
2024/04/01 00:47:07;;;;;;;0.30;0.20;;;;;;;12.69;100.00;98120.06;4992002;28;20221;-48
2024/04/01 00:49:32;;;;;;;0.30;0.20;;;;;;;12.77;100.00;98127.53;5010361;28;20229;-48
2024/04/01 00:51:58;;;;;;;0.30;0.20;;;;;;;12.68;100.00;98120.19;4994236;28;20225;-47
2024/04/01 00:54:24;;;;;;;0.30;0.20;;;;;;;12.69;100.00;98117.41;5010064;28;20234;-48
2024/04/01 00:56:50;;;;;;;0.30;0.20;;;;;;;12.71;100.00;98115.47;4985569;28;20501;-47
2024/04/01 00:59:19;;;;;;;0.30;0.20;;;;;;;12.62;100.00;98096.66;4985306;28;20218;-48
2024/04/01 01:01:46;;;;;;;0.30;0.20;;;;;;;12.64;100.00;98097.38;4993237;28;20485;-48
2024/04/01 01:04:12;;;;;;;0.30;0.20;;;;;;;12.73;100.00;98088.72;4974340;28;20538;-47
2024/04/01 01:06:38;;;;;;;0.30;0.20;;;;;;;12.71;100.00;98067.50;4979272;28;20894;-48
2024/04/01 01:09:07;;;;;;;0.30;0.20;;;;;;;12.70;100.00;98060.47;4998040;28;20474;-48
2024/04/01 01:11:33;;;;;;;0.30;0.20;;;;;;;12.61;100.00;98045.16;4992886;28;20231;-47
2024/04/01 01:13:58;;;;;;;0.30;0.20;;;;;;;12.68;100.00;98024.22;4990843;28;20485;-47
2024/04/01 01:16:24;;;;;;;0.30;0.20;;;;;;;12.75;100.00;98014.84;4978466;28;20234;-48
2024/04/01 01:18:51;;;;;;;0.30;0.20;;;;;;;12.62;100.00;98012.22;4986079;28;20226;-48
2024/04/01 01:21:17;;;;;;;0.30;0.20;;;;;;;12.83;100.00;98003.59;4993698;28;20222;-48
2024/04/01 01:23:43;;;;;;;0.30;0.20;;;;;;;12.72;100.00;98009.69;4993354;28;21010;-47
2024/04/01 01:26:08;;;;;;;0.30;0.20;;;;;;;12.53;100.00;98007.56;4993491;28;20544;-47
2024/04/01 01:28:34;;;;;;;0.30;0.20;;;;;;;12.62;100.00;98001.56;5009839;28;20215;-49
2024/04/01 01:31:00;;;;;;;0.30;0.20;;;;;;;12.68;100.00;97997.56;5003737;28;20317;-48
2024/04/01 01:33:27;;;;;;;0.30;0.20;;;;;;;12.61;100.00;97989.19;4985923;28;20454;-48
2024/04/01 01:35:53;;;;;;;0.30;0.20;;;;;;;12.49;100.00;97982.09;4993215;28;20432;-48
2024/04/01 01:38:19;;;;;;;0.30;0.20;;;;;;;12.65;100.00;97987.16;4988466;28;20593;-48
2024/04/01 01:40:45;;;;;;;0.30;0.20;;;;;;;12.60;100.00;97992.78;4981296;28;20214;-48
2024/04/01 01:43:10;;;;;;;0.30;0.20;;;;;;;12.55;100.00;98008.28;5009505;28;20687;-47
2024/04/01 01:45:36;;;;;;;0.30;0.20;;;;;;;12.47;100.00;98010.66;4980030;28;20300;-48
2024/04/01 01:48:01;;;;;;;0.30;0.20;;;;;;;12.54;100.00;98005.72;4993170;28;20218;-48
2024/04/01 01:50:27;;;;;;;0.30;0.20;;;;;;;12.66;100.00;98016.34;5009493;28;20223;-48
2024/04/01 01:52:53;;;;;;;0.30;0.20;;;;;;;12.69;100.00;98009.94;5008714;28;20221;-48
2024/04/01 01:55:19;;;;;;;0.30;0.20;;;;;;;12.53;100.00;98007.56;4992635;28;20287;-47
2024/04/01 01:57:44;;;;;;;0.30;0.20;;;;;;;12.57;100.00;98000.19;5008987;28;20602;-47
2024/04/01 02:00:13;;;;;;;0.30;0.20;;;;;;;12.67;100.00;98009.19;4996467;28;20213;-47
2024/04/01 02:02:42;;;;;;;0.30;0.20;;;;;;;12.62;100.00;98033.53;4980901;28;20621;-47
2024/04/01 02:05:09;;;;;;;0.30;0.20;;;;;;;12.29;100.00;98042.16;4979207;28;20574;-48
2024/04/01 02:07:35;;;;;;;0.30;0.20;;;;;;;12.53;100.00;98042.19;4992816;28;20468;-47
2024/04/01 02:10:01;;;;;;;0.30;0.20;;;;;;;12.73;100.00;98032.72;4992672;28;20489;-47
2024/04/01 02:12:27;;;;;;;0.30;0.20;;;;;;;12.88;100.00;98034.25;4992477;28;20462;-48
2024/04/01 02:14:52;;;;;;;0.30;0.20;;;;;;;13.00;100.00;98020.00;4984669;28;20570;-48
2024/04/01 02:17:18;;;;;;;0.30;0.20;;;;;;;13.10;100.00;98001.50;4985232;28;20249;-47
2024/04/01 02:19:47;;;;;;;0.30;0.20;;;;;;;12.83;100.00;97998.25;4992306;28;20214;-49
2024/04/01 02:22:13;;;;;;;0.30;0.20;;;;;;;12.58;100.00;98010.72;4980155;28;20223;-47
2024/04/01 02:24:40;;;;;;;0.30;0.20;;;;;;;12.64;100.00;98028.09;4991864;28;20986;-48
2024/04/01 02:27:06;;;;;;;0.30;0.20;;;;;;;12.68;100.00;98009.09;4992267;28;20469;-48
2024/04/01 02:29:32;;;;;;;0.30;0.20;;;;;;;13.26;100.00;97988.72;4992267;28;20473;-48
2024/04/01 02:31:58;;;;;;;0.30;0.20;;;;;;;12.97;100.00;97966.06;4992247;28;20453;-48
2024/04/01 02:34:23;;;;;;;0.30;0.20;;;;;;;12.97;100.00;97972.25;4992598;28;20321;-47
2024/04/01 02:36:49;;;;;;;0.30;0.20;;;;;;;12.75;100.00;97972.19;5008816;28;20706;-50
2024/04/01 02:39:17;;;;;;;0.30;0.20;;;;;;;12.88;100.00;97956.09;4973319;28;20297;-47
2024/04/01 02:41:44;;;;;;;0.30;0.20;;;;;;;12.91;100.00;97929.22;4985779;28;20218;-50
2024/04/01 02:44:10;;;;;;;0.30;0.20;;;;;;;12.84;100.00;97927.97;4984882;28;20486;-48
2024/04/01 02:46:35;;;;;;;0.30;0.20;;;;;;;13.16;100.00;97926.38;4985996;28;20869;-49
2024/04/01 02:49:01;;;;;;;0.30;0.20;;;;;;;12.91;100.00;97906.06;5001499;28;20294;-48
2024/04/01 02:51:26;;;;;;;0.30;0.20;;;;;;;13.11;100.00;97901.84;4985641;28;20241;-50
2024/04/01 02:53:52;;;;;;;0.30;0.20;;;;;;;12.78;100.00;97917.78;5008312;28;20595;-48
2024/04/01 02:56:17;;;;;;;0.30;0.20;;;;;;;12.82;100.00;97927.22;5008367;28;20261;-48
2024/04/01 02:58:43;;;;;;;0.30;0.20;;;;;;;12.99;100.00;97951.66;4991753;28;20230;-49
2024/04/01 03:01:10;;;;;;;0.30;0.20;;;;;;;12.75;100.00;97961.50;4995738;28;20218;-48
2024/04/01 03:03:36;;;;;;;0.30;0.20;;;;;;;12.54;100.00;97955.09;4975631;28;20481;-48
2024/04/01 03:06:02;;;;;;;0.30;0.20;;;;;;;13.12;100.00;97940.88;5008216;28;20440;-48
2024/04/01 03:08:29;;;;;;;0.30;0.20;;;;;;;12.77;100.00;97934.75;4991891;28;20222;-47
2024/04/01 03:11:02;;;;;;;0.30;0.20;;;;;;;12.71;100.00;97952.88;4991745;28;20457;-49
2024/04/01 03:13:28;;;;;;;0.30;0.20;;;;;;;12.48;100.00;97966.22;4991867;28;20473;-46
2024/04/01 03:15:55;;;;;;;0.30;0.20;;;;;;;12.69;100.00;97956.63;4984859;28;20439;-48
2024/04/01 03:18:21;;;;;;;0.30;0.20;;;;;;;12.72;100.00;97927.91;4991573;28;20515;-49
2024/04/01 03:20:47;;;;;;;0.30;0.20;;;;;;;12.78;100.00;97931.09;4991735;28;20473;-48
2024/04/01 03:23:14;;;;;;;0.30;0.20;;;;;;;12.84;100.00;97914.63;4991825;28;20512;-47
2024/04/01 03:25:40;;;;;;;0.30;0.20;;;;;;;12.85;100.00;97919.00;4991211;28;20957;-48
2024/04/01 03:28:06;;;;;;;0.30;0.20;;;;;;;12.59;100.00;97908.47;4991849;28;20604;-48
2024/04/01 03:30:32;;;;;;;0.30;0.20;;;;;;;12.65;100.00;97904.53;4991392;28;20210;-47
2024/04/01 03:32:58;;;;;;;0.30;0.20;;;;;;;12.53;100.00;97916.09;5008185;28;20469;-47
2024/04/01 03:35:23;;;;;;;0.30;0.20;;;;;;;12.40;100.00;97905.50;5006402;28;20568;-47
2024/04/01 03:37:49;;;;;;;0.30;0.20;;;;;;;12.74;100.00;97906.47;4982950;28;20269;-48
2024/04/01 03:40:14;;;;;;;0.30;0.20;;;;;;;12.93;100.00;97904.13;4987063;28;20221;-48
2024/04/01 03:42:40;;;;;;;0.30;0.20;;;;;;;12.47;100.00;97904.06;5007727;28;20686;-47
2024/04/01 03:45:08;;;;;;;0.30;0.20;;;;;;;12.92;100.00;97893.59;4991027;28;20277;-47
2024/04/01 03:47:34;;;;;;;0.30;0.20;;;;;;;12.67;100.00;97900.78;4991657;28;20218;-49
2024/04/01 03:50:00;;;;;;;0.30;0.20;;;;;;;12.66;100.00;97891.06;4991079;28;20466;-48
2024/04/01 03:52:25;;;;;;;0.30;0.20;;;;;;;12.49;100.00;97888.84;4991322;28;20218;-47
2024/04/01 03:54:51;;;;;;;0.30;0.20;;;;;;;12.64;100.00;97893.00;4995267;28;20253;-48
2024/04/01 03:57:17;;;;;;;0.30;0.20;;;;;;;12.48;100.00;97899.63;4995152;28;20640;-47
2024/04/01 03:59:42;;;;;;;0.30;0.20;;;;;;;12.65;100.00;97893.88;4995402;28;20622;-48
2024/04/01 04:02:08;;;;;;;0.30;0.20;;;;;;;12.62;100.00;97897.63;4989734;28;20219;-48
2024/04/01 04:04:35;;;;;;;0.30;0.20;;;;;;;12.46;100.00;97905.88;4986075;28;20237;-48
2024/04/01 04:07:01;;;;;;;0.30;0.20;;;;;;;12.46;100.00;97910.34;4995156;28;20273;-48
2024/04/01 04:09:26;;;;;;;0.30;0.20;;;;;;;12.53;100.00;97910.78;4994840;28;20519;-47
2024/04/01 04:11:52;;;;;;;0.30;0.20;;;;;;;12.54;100.00;97920.47;4986565;28;20557;-49
2024/04/01 04:14:20;;;;;;;0.30;0.20;;;;;;;12.48;100.00;97910.28;4989402;28;20274;-48
2024/04/01 04:16:49;;;;;;;0.30;0.20;;;;;;;12.53;100.00;97918.75;4994607;28;20987;-48
2024/04/01 04:19:15;;;;;;;0.30;0.20;;;;;;;12.37;100.00;97917.25;4994807;28;20469;-47
2024/04/01 04:21:41;;;;;;;0.30;0.20;;;;;;;12.41;100.00;97910.72;5011285;28;20462;-47
2024/04/01 04:24:06;;;;;;;0.30;0.20;;;;;;;12.41;100.00;97909.88;4994509;28;20516;-48
2024/04/01 04:26:32;;;;;;;0.30;0.20;;;;;;;12.46;100.00;97926.34;5011055;28;20222;-48
2024/04/01 04:28:57;;;;;;;0.30;0.20;;;;;;;12.50;100.00;97935.84;4992537;28;20246;-48
2024/04/01 04:31:23;;;;;;;0.30;0.20;;;;;;;12.46;100.00;97931.69;4983557;28;20737;-48
2024/04/01 04:33:49;;;;;;;0.30;0.20;;;;;;;12.46;100.00;97945.84;4994127;28;20234;-49
2024/04/01 04:36:15;;;;;;;0.30;0.20;;;;;;;12.32;100.00;97961.16;4993973;28;20834;-48
2024/04/01 04:38:40;;;;;;;0.30;0.20;;;;;;;12.43;100.00;97974.53;5010621;28;20210;-49
2024/04/01 04:41:06;;;;;;;0.30;0.20;;;;;;;12.49;100.00;97978.59;4994727;28;20273;-48
2024/04/01 04:43:32;;;;;;;0.30;0.20;;;;;;;12.25;100.00;98000.72;4998925;28;20301;-48
2024/04/01 04:45:59;;;;;;;0.30;0.20;;;;;;;12.47;100.00;98007.97;4983341;28;20229;-48
2024/04/01 04:48:28;;;;;;;0.30;0.20;;;;;;;12.59;100.00;98011.56;4994227;28;20460;-49
2024/04/01 04:50:54;;;;;;;0.30;0.20;;;;;;;12.48;100.00;98022.19;4994043;28;20950;-48
2024/04/01 04:53:20;;;;;;;0.30;0.20;;;;;;;12.53;100.00;98004.03;4993755;28;20561;-49
2024/04/01 04:55:45;;;;;;;0.30;0.20;;;;;;;12.30;100.00;98003.88;4985630;28;20239;-48
2024/04/01 04:58:11;;;;;;;0.30;0.20;;;;;;;12.27;100.00;98004.13;4989332;28;20230;-49
2024/04/01 05:00:36;;;;;;;0.30;0.20;;;;;;;12.33;100.00;98002.81;4997909;28;20672;-49
2024/04/01 05:03:05;;;;;;;0.30;0.20;;;;;;;12.46;100.00;98003.63;4979433;28;20222;-49
2024/04/01 05:05:31;;;;;;;0.30;0.20;;;;;;;12.49;100.00;98007.91;4982418;28;20234;-48
2024/04/01 05:07:57;;;;;;;0.30;0.20;;;;;;;12.64;100.00;98004.94;4993416;28;20517;-49
2024/04/01 05:10:23;;;;;;;0.30;0.20;;;;;;;12.71;100.00;98006.19;4986285;28;20542;-48
2024/04/01 05:12:48;;;;;;;0.30;0.20;;;;;;;12.59;100.00;98009.75;4989999;28;20641;-48
2024/04/01 05:15:14;;;;;;;0.30;0.20;;;;;;;12.53;100.00;98007.56;4977115;28;20272;-48
2024/04/01 05:17:39;;;;;;;0.30;0.20;;;;;;;12.49;100.00;97999.91;4980504;28;20300;-49
2024/04/01 05:20:05;;;;;;;0.30;0.20;;;;;;;12.39;100.00;97994.38;5009909;28;20277;-48
2024/04/01 05:22:31;;;;;;;0.30;0.20;;;;;;;12.49;100.00;97995.44;4993477;28;20257;-50
2024/04/01 05:24:57;;;;;;;0.30;0.20;;;;;;;13.05;100.00;98001.03;5009509;28;21002;-48
2024/04/01 05:27:23;;;;;;;0.30;0.20;;;;;;;13.14;100.00;97999.44;4980198;28;20215;-49
2024/04/01 05:30:03;;;;;;;0.30;0.20;;;;;;;13.04;100.00;97989.50;4987076;28;20596;-48
2024/04/01 05:32:33;;;;;;;0.30;0.20;;;;;;;12.85;100.00;97993.66;4980251;28;20469;-48
2024/04/01 05:35:00;;;;;;;0.30;0.20;;;;;;;12.92;100.00;97990.41;4993011;28;20477;-48
2024/04/01 05:37:25;;;;;;;0.30;0.20;;;;;;;12.92;100.00;97984.25;4987789;28;20884;-48
2024/04/01 05:39:51;;;;;;;0.30;0.20;;;;;;;13.05;100.00;97990.34;4982590;28;20993;-48
2024/04/01 05:42:18;;;;;;;0.30;0.20;;;;;;;13.15;100.00;97991.34;4986431;28;20219;-48
2024/04/01 05:44:43;;;;;;;0.30;0.20;;;;;;;12.91;100.00;97996.72;4982269;28;20451;-48
2024/04/01 05:47:09;;;;;;;0.30;0.20;;;;;;;13.01;100.00;98000.38;4980032;28;20461;-49
2024/04/01 05:49:35;;;;;;;0.30;0.20;;;;;;;12.80;100.00;98007.34;4992348;28;20249;-48
2024/04/01 05:52:00;;;;;;;0.30;0.20;;;;;;;12.63;100.00;98013.91;4979987;28;20258;-49
2024/04/01 05:54:26;;;;;;;0.30;0.20;;;;;;;12.52;100.00;98019.19;4983636;28;20623;-48
2024/04/01 05:56:51;;;;;;;0.30;0.20;;;;;;;12.46;100.00;98022.28;4979656;28;20726;-48
2024/04/01 05:59:17;;;;;;;0.30;0.20;;;;;;;12.34;100.00;98036.50;4990036;28;20249;-48
2024/04/01 06:01:42;;;;;;;0.30;0.20;;;;;;;12.32;100.00;98035.75;4995443;28;20210;-48
2024/04/01 06:04:08;;;;;;;0.30;0.20;;;;;;;12.29;100.00;98038.63;4990389;28;20244;-47
2024/04/01 06:06:33;;;;;;;0.30;0.20;;;;;;;12.38;100.00;98036.16;4979699;28;20218;-47
2024/04/01 06:08:59;;;;;;;0.30;0.20;;;;;;;12.62;100.00;98046.00;4992619;28;20310;-52
2024/04/01 06:11:24;;;;;;;0.30;0.20;;;;;;;12.45;100.00;98063.19;4988831;28;20229;-47
2024/04/01 06:13:50;;;;;;;0.30;0.20;;;;;;;12.38;100.00;98056.63;4986033;28;20233;-46
2024/04/01 06:16:15;;;;;;;0.30;0.20;;;;;;;12.48;100.00;98070.16;4991757;28;20658;-48
2024/04/01 06:18:41;;;;;;;0.30;0.20;;;;;;;12.41;100.00;98067.91;5008549;28;20218;-49
2024/04/01 06:21:06;;;;;;;0.30;0.20;;;;;;;12.45;100.00;98069.38;4984978;28;20261;-49
2024/04/01 06:23:32;;;;;;;0.30;0.20;;;;;;;12.58;100.00;98076.50;4983088;28;20247;-48
2024/04/01 06:25:57;;;;;;;0.30;0.20;;;;;;;12.43;100.00;98076.63;4979391;28;20662;-48
2024/04/01 06:28:23;;;;;;;0.30;0.20;;;;;;;12.46;100.00;98079.06;4992093;28;20345;-48
2024/04/01 06:30:49;;;;;;;0.30;0.20;;;;;;;12.47;100.00;98077.25;4978692;28;20242;-48
2024/04/01 06:33:15;;;;;;;0.30;0.20;;;;;;;12.53;100.00;98073.31;4981563;28;20516;-48
2024/04/01 06:35:41;;;;;;;0.30;0.20;;;;;;;12.84;100.00;98080.78;4984342;28;20485;-48
2024/04/01 06:38:06;;;;;;;0.30;0.20;;;;;;;12.94;100.00;98083.63;4976803;28;20231;-49
2024/04/01 06:40:35;;;;;;;0.30;0.20;;;;;;;12.67;100.00;98098.00;4988047;28;20224;-48
2024/04/01 06:43:01;;;;;;;0.30;0.20;;;;;;;12.66;100.00;98104.31;4982262;28;20288;-48
2024/04/01 06:45:26;;;;;;;0.30;0.20;;;;;;;12.70;100.00;98105.78;4978641;28;20906;-48
2024/04/01 06:47:52;;;;;;;0.30;0.20;;;;;;;12.87;100.00;98117.03;5008463;28;20248;-48
2024/04/01 06:50:17;;;;;;;0.30;0.20;;;;;;;12.74;100.00;98117.06;4992036;28;20226;-49
2024/04/01 06:52:43;;;;;;;0.30;0.20;;;;;;;12.86;100.00;98120.66;4991993;28;20222;-49
2024/04/01 06:55:09;;;;;;;0.30;0.20;;;;;;;12.89;100.00;98134.66;4991823;28;20242;-48
2024/04/01 06:57:34;;;;;;;0.30;0.20;;;;;;;13.11;100.00;98131.25;5008191;28;20252;-48
2024/04/01 07:00:00;;;;;;;0.30;0.20;;;;;;;12.77;100.00;98132.00;4995649;28;20305;-48
2024/04/01 07:02:25;;;;;;;0.30;0.20;;;;;;;12.69;100.00;98137.88;4981730;28;20357;-48
2024/04/01 07:04:51;;;;;;;0.30;0.20;;;;;;;12.48;100.00;98137.63;4975654;28;20242;-48
2024/04/01 07:07:17;;;;;;;0.30;0.20;;;;;;;12.65;100.00;98139.94;4991588;28;20865;-48
2024/04/01 07:09:42;;;;;;;0.30;0.20;;;;;;;12.52;100.00;98147.09;4991778;28;20280;-49
2024/04/01 07:12:08;;;;;;;0.30;0.20;;;;;;;12.54;100.00;98142.50;4991970;28;20663;-48
2024/04/01 07:14:33;;;;;;;0.30;0.20;;;;;;;12.55;100.00;98154.00;5007560;28;20714;-48
2024/04/01 07:17:01;;;;;;;0.30;0.20;;;;;;;12.54;100.00;98157.63;4991610;28;20242;-48
2024/04/01 07:19:26;;;;;;;0.30;0.20;;;;;;;12.43;100.00;98158.38;4992134;28;20649;-48
2024/04/01 07:21:52;;;;;;;0.30;0.20;;;;;;;12.18;100.00;98150.41;4991723;28;20465;-48
2024/04/01 07:24:18;;;;;;;0.30;0.20;;;;;;;12.19;100.00;98146.78;4991414;28;20249;-48
2024/04/01 07:26:43;;;;;;;0.30;0.20;;;;;;;11.95;100.00;98146.69;4992148;28;20214;-49
2024/04/01 07:29:09;;;;;;;0.30;0.20;;;;;;;12.02;100.00;98142.63;5012265;28;20236;-48
2024/04/01 07:31:34;;;;;;;0.30;0.20;;;;;;;11.87;100.00;98144.53;4995427;28;20594;-49
2024/04/01 07:34:00;;;;;;;0.30;0.20;;;;;;;11.84;100.00;98142.09;5012052;28;20325;-48
2024/04/01 07:36:25;;;;;;;0.30;0.20;;;;;;;11.96;100.00;98143.06;4995689;28;20222;-48
2024/04/01 07:38:51;;;;;;;0.30;0.20;;;;;;;11.95;100.00;98142.22;5011833;28;20634;-49
2024/04/01 07:41:16;;;;;;;0.30;0.20;;;;;;;12.31;100.00;98152.09;4995524;28;20229;-48
2024/04/01 07:43:42;;;;;;;0.30;0.20;;;;;;;12.18;100.00;98151.25;4992627;28;20664;-48
2024/04/01 07:46:07;;;;;;;0.30;0.20;;;;;;;12.21;100.00;98156.38;4985250;28;20218;-48
2024/04/01 07:48:33;;;;;;;0.30;0.20;;;;;;;12.35;100.00;98161.59;5011731;28;20221;-48
2024/04/01 07:51:02;;;;;;;0.30;0.20;;;;;;;12.23;100.00;98153.63;5011905;28;20250;-48
2024/04/01 07:53:28;;;;;;;0.30;0.20;;;;;;;12.20;100.00;98154.69;4995120;28;20230;-49
2024/04/01 07:55:54;;;;;;;0.30;0.20;;;;;;;12.20;100.00;98162.69;4994993;28;20842;-49
2024/04/01 07:58:19;;;;;;;0.30;0.20;;;;;;;12.27;100.00;98163.09;4994864;28;20242;-49
2024/04/01 08:00:45;;;;;;;0.30;0.20;;;;;;;12.27;100.00;98171.09;5014951;28;20233;-48
2024/04/01 08:03:12;;;;;;;0.30;0.20;;;;;;;12.35;100.00;98164.28;4992251;28;20226;-49
2024/04/01 08:05:38;;;;;;;0.30;0.20;;;;;;;12.33;100.00;98183.97;4985359;28;20246;-49
2024/04/01 08:08:04;;;;;;;0.30;0.20;;;;;;;12.51;100.00;98180.03;4995023;28;20524;-48
2024/04/01 08:10:29;;;;;;;0.30;0.20;;;;;;;12.50;100.00;98175.66;5011415;28;20465;-49
2024/04/01 08:12:55;;;;;;;0.30;0.20;;;;;;;12.30;100.00;98187.69;4994828;28;20658;-48
2024/04/01 08:15:20;;;;;;;0.30;0.20;;;;;;;12.37;100.00;98185.47;4985298;28;20297;-46
2024/04/01 08:17:46;;;;;;;0.30;0.20;;;;;;;12.31;100.00;98184.06;4990973;28;20278;-47
2024/04/01 08:20:11;;;;;;;0.30;0.20;;;;;;;12.28;100.00;98199.41;4994943;28;20610;-47
2024/04/01 08:22:37;;;;;;;0.30;0.20;;;;;;;12.13;100.00;98188.88;5011152;28;20214;-47
2024/04/01 08:25:04;;;;;;;0.30;0.20;;;;;;;12.28;100.00;98189.63;5011026;28;20273;-48
2024/04/01 08:27:30;;;;;;;0.30;0.20;;;;;;;12.22;100.00;98189.22;4994600;28;20668;-48
2024/04/01 08:29:55;;;;;;;0.30;0.20;;;;;;;12.10;100.00;98186.41;4994806;28;20472;-47
2024/04/01 08:32:21;;;;;;;0.30;0.20;;;;;;;12.26;100.00;98180.88;4994876;28;20226;-48
2024/04/01 08:34:47;;;;;;;0.30;0.20;;;;;;;12.41;100.00;98200.28;4994654;28;20728;-48
2024/04/01 08:37:12;;;;;;;0.30;0.20;;;;;;;12.61;100.00;98210.41;5010551;28;20317;-48
2024/04/01 08:39:37;;;;;;;0.30;0.20;;;;;;;12.37;100.00;98206.78;5009867;28;20675;-47
2024/04/01 08:42:04;;;;;;;0.30;0.20;;;;;;;12.44;100.00;98206.22;5010767;28;20264;-47
2024/04/01 08:44:32;;;;;;;0.30;0.20;;;;;;;12.34;100.00;98201.69;4985727;28;20720;-48
2024/04/01 08:47:00;;;;;;;0.30;0.20;;;;;;;12.33;100.00;98205.28;4990097;28;20466;-48
2024/04/01 08:49:51;;;;;;;0.30;0.20;;;;;;;12.52;100.00;98213.72;4994127;28;20941;-47
2024/04/01 08:52:24;;;;;;;0.30;0.20;;;;;;;12.58;100.00;98212.41;4994260;28;20437;-48
2024/04/01 08:54:51;;;;;;;0.30;0.20;;;;;;;12.42;100.00;98212.63;4993877;28;20490;-48
2024/04/01 08:57:17;;;;;;;0.30;0.20;;;;;;;12.46;100.00;98214.97;4994049;28;20526;-48
2024/04/01 08:59:43;;;;;;;0.30;0.20;;;;;;;12.51;100.00;98220.00;5011586;28;20466;-47
2024/04/01 09:02:08;;;;;;;0.30;0.20;;;;;;;12.78;100.00;98221.69;4988696;28;20215;-48
2024/04/01 09:04:34;;;;;;;0.30;0.20;;;;;;;12.72;100.00;98214.97;4975627;28;20460;-47
2024/04/01 09:07:00;;;;;;;0.30;0.20;;;;;;;12.70;100.00;98217.75;4994255;28;20215;-47
2024/04/01 09:09:27;;;;;;;0.30;0.20;;;;;;;13.03;100.00;98219.84;4994232;28;20218;-48
2024/04/01 09:11:53;;;;;;;0.30;0.20;;;;;;;12.90;99.79;98220.81;4994238;28;20219;-48
2024/04/01 09:14:19;;;;;;;0.30;0.20;;;;;;;13.22;99.75;98235.38;4992556;28;21017;-47
2024/04/01 09:16:48;;;;;;;0.30;0.20;;;;;;;12.87;99.60;98248.53;4981821;28;20473;-48
2024/04/01 09:19:16;;;;;;;0.30;0.20;;;;;;;13.32;99.76;98251.59;4993444;28;20245;-47
2024/04/01 09:21:41;;;;;;;0.30;0.20;;;;;;;12.99;98.57;98239.66;4993859;28;20828;-48
2024/04/01 09:24:08;;;;;;;0.30;0.20;;;;;;;13.11;98.71;98248.59;4993712;28;20481;-48
2024/04/01 09:26:33;;;;;;;0.30;0.20;;;;;;;12.83;99.82;98246.19;4994068;28;20226;-47
2024/04/01 09:29:02;;;;;;;0.30;0.20;;;;;;;13.07;99.34;98270.28;5010139;28;20884;-47
2024/04/01 09:31:27;;;;;;;0.30;0.20;;;;;;;13.14;99.34;98274.19;4993765;28;20593;-48
2024/04/01 09:33:53;;;;;;;0.30;0.20;;;;;;;13.13;99.26;98256.50;4993568;28;20524;-48
2024/04/01 09:36:19;;;;;;;0.30;0.20;;;;;;;13.10;98.32;98257.56;4993692;28;20229;-48
2024/04/01 09:38:46;;;;;;;0.30;0.20;;;;;;;13.48;97.90;98259.34;5008963;28;20253;-51
2024/04/01 09:41:12;;;;;;;0.30;0.20;;;;;;;13.24;97.10;98270.81;4984001;28;20685;-48
2024/04/01 09:43:37;;;;;;;0.30;0.20;;;;;;;13.22;98.86;98261.22;4986547;28;20469;-48
2024/04/01 09:46:03;;;;;;;0.30;0.20;;;;;;;13.23;99.47;98269.09;4982024;28;20825;-48
2024/04/01 09:48:30;;;;;;;0.30;0.20;;;;;;;13.37;99.66;98265.44;5009016;28;20269;-49
2024/04/01 09:50:57;;;;;;;0.30;0.20;;;;;;;13.76;98.71;98263.50;4984757;28;20211;-49
2024/04/01 09:53:24;;;;;;;0.30;0.20;;;;;;;13.33;99.06;98272.81;4988324;28;20469;-49
2024/04/01 09:56:11;;;;;;;0.30;0.20;;;;;;;13.50;98.14;98276.94;5009136;28;20469;-48
2024/04/01 09:59:01;;;;;;;0.30;0.20;;;;;;;13.43;98.56;98291.69;4992452;28;20551;-47
2024/04/01 10:01:45;;;;;;;0.30;0.20;;;;;;;13.47;98.27;98287.84;4994207;28;20462;-48
2024/04/01 10:04:32;;;;;;;0.30;0.20;;;;;;;13.82;96.58;98293.25;4987818;28;20485;-48
2024/04/01 10:07:32;;;;;;;0.30;0.20;;;;;;;13.78;97.75;98312.28;4985013;28;20455;-48
2024/04/01 10:10:26;;;;;;;0.30;0.20;;;;;;;13.60;97.26;98304.66;4991373;28;20465;-47
2024/04/01 10:13:30;;;;;;;0.30;0.20;;;;;;;13.42;95.30;98315.81;5008629;28;20485;-48
2024/04/01 10:16:05;;;;;;;0.30;0.20;;;;;;;13.46;95.81;98317.31;4978888;28;20832;-48
2024/04/01 10:18:46;;;;;;;0.30;0.20;;;;;;;13.32;97.00;98324.50;4982556;28;20493;-49
2024/04/01 10:21:49;;;;;;;0.30;0.20;;;;;;;13.55;95.67;98329.97;4989532;28;20436;-49
2024/04/01 10:25:02;;;;;;;0.30;0.20;;;;;;;13.61;94.73;98335.75;4979688;28;20509;-51
2024/04/01 10:28:02;;;;;;;0.30;0.20;;;;;;;13.44;96.38;98340.59;4985163;28;20462;-50
2024/04/01 10:30:46;;;;;;;0.30;0.20;;;;;;;13.44;96.85;98343.25;4985748;28;20866;-49
2024/04/01 10:33:53;;;;;;;0.30;0.20;;;;;;;13.49;97.37;98341.09;4992042;28;20425;-49
2024/04/01 10:36:38;;;;;;;0.30;0.20;;;;;;;13.44;97.68;98354.78;4978827;28;20462;-49
2024/04/01 10:39:28;;;;;;;0.30;0.20;;;;;;;13.64;97.95;98358.69;4985702;28;20947;-48
2024/04/01 10:42:34;;;;;;;0.30;0.20;;;;;;;13.53;99.21;98371.94;4989101;28;20477;-49
2024/04/01 10:45:37;;;;;;;0.30;0.20;;;;;;;13.68;98.35;98378.84;4988464;28;20456;-50
2024/04/01 10:48:29;;;;;;;0.30;0.20;;;;;;;13.15;99.72;98377.28;4983426;28;20457;-49
2024/04/01 10:51:20;;;;;;;0.30;0.20;;;;;;;13.05;100.00;98371.75;4978903;28;20485;-49
2024/04/01 10:54:03;;;;;;;0.53;0.53;;;;;;;13.15;100.00;98391.47;4979732;28;20524;-49
2024/04/01 10:56:40;;;;;;;0.30;0.20;;;;;;;13.00;100.00;98408.53;4978645;28;20466;-49
2024/04/01 10:59:40;;;;;;;0.30;0.20;;;;;;;13.02;100.00;98411.97;4990885;28;20966;-49
2024/04/01 11:02:33;;;;;;;0.30;0.20;;;;;;;12.94;98.28;98422.31;4982320;28;20509;-49
2024/04/01 11:05:13;;;;;;;0.30;0.20;;;;;;;12.91;97.50;98427.84;4991625;28;20478;-50
2024/04/01 11:08:16;;;;;;;0.30;0.20;;;;;;;12.72;96.43;98433.56;4978663;28;20462;-48
2024/04/01 11:10:58;;;;;;;0.30;0.20;;;;;;;12.93;96.87;98442.78;4982763;28;20461;-50
2024/04/01 11:13:26;;;;;;;0.30;0.20;;;;;;;12.69;96.68;98461.28;4986541;28;20447;-49
2024/04/01 11:15:56;;;;;;;0.30;0.20;;;;;;;12.79;95.59;98450.00;4981955;28;20953;-49
2024/04/01 11:18:31;;;;;;;0.30;0.20;;;;;;;12.51;96.82;98459.84;4991164;28;20485;-49
2024/04/01 11:21:05;;;;;;;0.30;0.20;;;;;;;12.66;96.19;98464.16;4989612;28;20457;-49
2024/04/01 11:23:53;;;;;;;0.30;0.20;;;;;;;12.99;94.95;98473.50;4978272;28;21011;-49
2024/04/01 11:26:28;;;;;;;0.30;0.20;;;;;;;12.68;95.90;98472.06;4973691;28;20800;-48
2024/04/01 11:29:16;;;;;;;0.30;0.20;;;;;;;12.61;94.47;98476.94;4983437;28;20498;-48
2024/04/01 11:31:53;;;;;;;0.30;0.20;;;;;;;12.66;95.52;98479.31;4991253;28;20453;-50
2024/04/01 11:34:39;;;;;;;0.30;0.20;;;;;;;12.65;95.37;98491.78;4986775;28;20476;-49